Atalandi — SVBA — position and weather

sailwx.info

Track history (hours):
 
Tides and Currents Weather Stations Pressure Air Temp Water Temp Dewpoint Dewpoint Depression Visibility Wind Speed Wind Dir Waves Ship Positions

Atalandi

Last reported at 2015-May-26 13:07 UTC. Time now 2015-May-27 20:04 UTC.
Position N 39°46' W 067°27'.

Length 248 m; draft 10.5 m.

Type: Tanker. MMSI: 240269000.

Date/timePositionNaut miles runAvg speedWind from/ knotsBaromVisibWave heightAir tempDewpointWater temp
2015-May-26 13:07N 39°46' W 067°27'712.8
2015-May-26 12:33N 39°42' W 067°35'1312.4
2015-May-26 11:32N 39°36' W 067°49'1010.7
2015-May-26 10:33N 39°31' W 068°01'1211.2
2015-May-26 09:31N 39°26' W 068°15'1111.3
2015-May-26 08:33N 39°21' W 068°27'1111.3
2015-May-26 07:33N 39°16' W 068°40'1311.3
2015-May-26 06:25N 39°10' W 068°55'1011.6
2015-May-26 05:31N 39°05' W 069°07'1311.7
2015-May-26 04:27N 38°60' W 069°21'1411.4
2015-May-26 03:13N 38°54' W 069°37'910.9
2015-May-26 02:25N 38°50' W 069°47'1010.4
2015-May-26 01:27N 38°45' W 069°59'1010.6
2015-May-26 00:29N 38°37' W 070°08'1011.0
2015-May-25 23:33N 38°30' W 070°17'1111.0
2015-May-25 22:32N 38°21' W 070°27'1111.2
2015-May-25 21:33N 38°13' W 070°35'1312.4
2015-May-25 20:30N 38°03' W 070°46'1213.0
2015-May-25 19:33N 37°54' W 070°57'1413.2
2015-May-25 18:31N 37°44' W 071°08'  
2015-May-23 07:03N 27°03' W 079°41'715.0
2015-May-23 06:34N 26°55' W 079°41'1514.8
2015-May-23 05:33N 26°40' W 079°42'1514.7
2015-May-23 04:33N 26°26' W 079°41'1514.9
2015-May-23 03:33N 26°11' W 079°42'1515.1
2015-May-23 02:33N 25°56' W 079°44'1515.1
2015-May-23 01:33N 25°41' W 079°46'24010.9
2015-May-22 03:33N 24°21' W 083°57'65012.9
2015-May-20 01:06N 29°21' W 094°43'0 0.2
2015-May-19 22:19N 29°21' W 094°44'0 0.0
2015-May-19 21:04N 29°21' W 094°44'0 0.0
2015-May-19 20:22N 29°21' W 094°44'0 0.1
2015-May-19 17:28N 29°21' W 094°44'1 0.3
2015-May-19 15:33N 29°21' W 094°45'8 7.8
2015-May-19 14:33N 29°27' W 094°50'1010.3
2015-May-19 13:33N 29°35' W 094°56'8 8.1
2015-May-19 12:33N 29°42' W 095°01'5 4.9
2015-May-19 11:33N 29°45' W 095°06'0 0.1
2015-May-19 10:33N 29°45' W 095°06'0 0.0
2015-May-19 09:33N 29°45' W 095°06'0 0.0
2015-May-19 08:33N 29°45' W 095°06'0 0.0
2015-May-19 07:03N 29°45' W 095°06'0 0.0
2015-May-19 06:21N 29°45' W 095°06'0 0.0
2015-May-19 05:18N 29°45' W 095°06'0 0.0
2015-May-19 04:27N 29°45' W 095°06'0 0.0
2015-May-19 03:21N 29°45' W 095°06'0 0.0
2015-May-19 02:33N 29°45' W 095°06'0 0.0
2015-May-19 01:30N 29°45' W 095°06'0 0.0
2015-May-19 00:30N 29°45' W 095°06'0 0.0
2015-May-18 23:09N 29°45' W 095°06'0 0.0
2015-May-18 22:15N 29°45' W 095°06'0 0.0
2015-May-18 20:27N 29°45' W 095°06'0 0.0
2015-May-18 17:21N 29°45' W 095°06'0 0.0
2015-May-18 16:27N 29°45' W 095°06'0 0.0
2015-May-18 15:33N 29°45' W 095°06'0 0.0
2015-May-18 14:33N 29°45' W 095°06'0 0.0
2015-May-18 13:33N 29°45' W 095°06'0 0.0
2015-May-18 12:33N 29°45' W 095°06'0 0.0
2015-May-18 11:27N 29°45' W 095°06'0 0.0
2015-May-18 10:33N 29°45' W 095°06'0 0.0
2015-May-18 09:27N 29°45' W 095°06'0 0.0
2015-May-18 08:33N 29°45' W 095°06'0 0.0
2015-May-18 07:33N 29°45' W 095°06'0 0.0
2015-May-18 06:30N 29°45' W 095°06'0 0.0
2015-May-18 05:21N 29°45' W 095°06'0 0.0
2015-May-18 04:27N 29°45' W 095°06'0 0.0
2015-May-18 03:33N 29°45' W 095°06'0 0.0
2015-May-18 02:27N 29°45' W 095°06'0 0.0
2015-May-18 01:27N 29°45' W 095°06'0 0.0
2015-May-18 00:27N 29°45' W 095°06'0 0.0
2015-May-17 23:33N 29°45' W 095°06'0 0.0
2015-May-17 22:33N 29°45' W 095°06'0 0.0
2015-May-17 20:09N 29°45' W 095°06'0 0.3
2015-May-17 19:34N 29°45' W 095°06'5 4.9
2015-May-17 18:33N 29°42' W 095°01'1010.3
2015-May-17 17:34N 29°34' W 094°55'1312.5
2015-May-17 16:33N 29°22' W 094°48'  
Track history (hours):
 
Tides and Currents Weather Stations Pressure Air Temp Water Temp Dewpoint Dewpoint Depression Visibility Wind Speed Wind Dir Waves Ship Positions

Atalandi

Last reported at 2015-May-26 13:07 UTC. Time now 2015-May-27 20:04 UTC.
Position N 39°46' W 067°27'.

Length 248 m; draft 10.5 m.

Type: Tanker. MMSI: 240269000.

Date/timePositionNaut miles runAvg speedWind from/ knotsBaromVisibWave heightAir tempDewpointWater temp
2015-May-26 13:07N 39°46' W 067°27'712.8
2015-May-26 12:33N 39°42' W 067°35'1312.4
2015-May-26 11:32N 39°36' W 067°49'1010.7
2015-May-26 10:33N 39°31' W 068°01'1211.2
2015-May-26 09:31N 39°26' W 068°15'1111.3
2015-May-26 08:33N 39°21' W 068°27'1111.3
2015-May-26 07:33N 39°16' W 068°40'1311.3
2015-May-26 06:25N 39°10' W 068°55'1011.6
2015-May-26 05:31N 39°05' W 069°07'1311.7
2015-May-26 04:27N 38°60' W 069°21'1411.4
2015-May-26 03:13N 38°54' W 069°37'910.9
2015-May-26 02:25N 38°50' W 069°47'1010.4
2015-May-26 01:27N 38°45' W 069°59'1010.6
2015-May-26 00:29N 38°37' W 070°08'1011.0
2015-May-25 23:33N 38°30' W 070°17'1111.0
2015-May-25 22:32N 38°21' W 070°27'1111.2
2015-May-25 21:33N 38°13' W 070°35'1312.4
2015-May-25 20:30N 38°03' W 070°46'1213.0
2015-May-25 19:33N 37°54' W 070°57'1413.2
2015-May-25 18:31N 37°44' W 071°08'  
2015-May-23 07:03N 27°03' W 079°41'715.0
2015-May-23 06:34N 26°55' W 079°41'1514.8
2015-May-23 05:33N 26°40' W 079°42'1514.7
2015-May-23 04:33N 26°26' W 079°41'1514.9
2015-May-23 03:33N 26°11' W 079°42'1515.1
2015-May-23 02:33N 25°56' W 079°44'1515.1
2015-May-23 01:33N 25°41' W 079°46'24010.9
2015-May-22 03:33N 24°21' W 083°57'65012.9
2015-May-20 01:06N 29°21' W 094°43'0 0.2
2015-May-19 22:19N 29°21' W 094°44'0 0.0
2015-May-19 21:04N 29°21' W 094°44'0 0.0
2015-May-19 20:22N 29°21' W 094°44'0 0.1
2015-May-19 17:28N 29°21' W 094°44'1 0.3
2015-May-19 15:33N 29°21' W 094°45'8 7.8
2015-May-19 14:33N 29°27' W 094°50'1010.3
2015-May-19 13:33N 29°35' W 094°56'8 8.1
2015-May-19 12:33N 29°42' W 095°01'5 4.9
2015-May-19 11:33N 29°45' W 095°06'0 0.1
2015-May-19 10:33N 29°45' W 095°06'0 0.0
2015-May-19 09:33N 29°45' W 095°06'0 0.0
2015-May-19 08:33N 29°45' W 095°06'0 0.0
2015-May-19 07:03N 29°45' W 095°06'0 0.0
2015-May-19 06:21N 29°45' W 095°06'0 0.0
2015-May-19 05:18N 29°45' W 095°06'0 0.0
2015-May-19 04:27N 29°45' W 095°06'0 0.0
2015-May-19 03:21N 29°45' W 095°06'0 0.0
2015-May-19 02:33N 29°45' W 095°06'0 0.0
2015-May-19 01:30N 29°45' W 095°06'0 0.0
2015-May-19 00:30N 29°45' W 095°06'0 0.0
2015-May-18 23:09N 29°45' W 095°06'0 0.0
2015-May-18 22:15N 29°45' W 095°06'0 0.0
2015-May-18 20:27N 29°45' W 095°06'0 0.0
2015-May-18 17:21N 29°45' W 095°06'0 0.0
2015-May-18 16:27N 29°45' W 095°06'0 0.0
2015-May-18 15:33N 29°45' W 095°06'0 0.0
2015-May-18 14:33N 29°45' W 095°06'0 0.0
2015-May-18 13:33N 29°45' W 095°06'0 0.0
2015-May-18 12:33N 29°45' W 095°06'0 0.0
2015-May-18 11:27N 29°45' W 095°06'0 0.0
2015-May-18 10:33N 29°45' W 095°06'0 0.0
2015-May-18 09:27N 29°45' W 095°06'0 0.0
2015-May-18 08:33N 29°45' W 095°06'0 0.0
2015-May-18 07:33N 29°45' W 095°06'0 0.0
2015-May-18 06:30N 29°45' W 095°06'0 0.0
2015-May-18 05:21N 29°45' W 095°06'0 0.0
2015-May-18 04:27N 29°45' W 095°06'0 0.0
2015-May-18 03:33N 29°45' W 095°06'0 0.0
2015-May-18 02:27N 29°45' W 095°06'0 0.0
2015-May-18 01:27N 29°45' W 095°06'0 0.0
2015-May-18 00:27N 29°45' W 095°06'0 0.0
2015-May-17 23:33N 29°45' W 095°06'0 0.0
2015-May-17 22:33N 29°45' W 095°06'0 0.0
2015-May-17 20:09N 29°45' W 095°06'0 0.3
2015-May-17 19:34N 29°45' W 095°06'5 4.9
2015-May-17 18:33N 29°42' W 095°01'1010.3
2015-May-17 17:34N 29°34' W 094°55'1312.5
2015-May-17 16:33N 29°22' W 094°48'  

Dump ship's entire track history